Time;durP1;ratioP1;P1;durP2;ratioP2;P2;SDS_P1;SDS_P2;PMS_P1;PMS_P2;Temp;Humidity;BMP_temperature;BMP_pressure;BME280_temperature;BME280_humidity;BME280_pressure;Samples;Min_cycle;Max_cycle;Signal;HPM_P1;HPM_P2
2021/04/18 00:01:48;;;;;;;70.52;40.35;;;;;;;10.23;88.39;100542.05;1666759;84;21210;-79
2021/04/18 00:04:13;;;;;;;76.42;42.88;;;;;;;10.28;88.06;100529.73;1665685;84;21667;-81
2021/04/18 00:06:45;;;;;;;76.10;42.08;;;;;;;10.39;87.70;100539.67;1645597;85;22170;-77
2021/04/18 00:09:11;;;;;;;86.17;48.95;;;;;;;10.35;87.87;100535.64;1662788;83;21654;-77
2021/04/18 00:11:44;;;;;;;99.67;52.00;;;;;;;10.37;87.86;100547.38;1665191;85;21806;-80
2021/04/18 00:14:12;;;;;;;96.45;49.35;;;;;;;10.29;88.07;100547.25;1662422;83;21266;-83
2021/04/18 00:16:40;;;;;;;105.25;48.92;;;;;;;10.41;87.85;100539.02;1666685;83;21224;-78
2021/04/18 00:19:06;;;;;;;;;;;;;;;10.38;87.73;100534.04;1674041;83;21206;-79
2021/04/18 00:21:33;;;;;;;96.00;45.88;;;;;;;10.45;87.50;100534.28;1643523;85;26976;-79
2021/04/18 00:24:01;;;;;;;90.67;44.38;;;;;;;10.44;87.36;100535.27;1647782;85;21310;-80
2021/04/18 00:26:27;;;;;;;104.38;48.50;;;;;;;10.30;87.67;100540.51;1664011;85;21195;-80
2021/04/18 00:28:53;;;;;;;103.05;48.20;;;;;;;10.31;87.68;100532.09;1666345;85;21017;-78
2021/04/18 00:31:19;;;;;;;99.92;47.08;;;;;;;10.39;87.44;100529.11;1669653;83;21205;-79
2021/04/18 00:33:45;;;;;;;95.62;45.58;;;;;;;10.43;87.31;100527.50;1663876;83;21359;-81
2021/04/18 00:36:11;;;;;;;100.45;46.83;;;;;;;10.39;87.37;100527.79;1663418;85;25285;-83
2021/04/18 00:38:36;;;;;;;93.97;45.05;;;;;;;10.38;87.24;100522.16;1666406;83;21763;-79
2021/04/18 00:41:04;;;;;;;99.03;46.88;;;;;;;10.45;87.10;100525.53;1668494;83;20969;-79
2021/04/18 00:43:29;;;;;;;;;;;;;;;10.45;87.03;100518.94;1648001;84;21442;-78
2021/04/18 00:45:57;;;;;;;90.55;44.65;;;;;;;10.50;86.89;100518.00;1667858;84;21510;-81
2021/04/18 00:48:23;;;;;;;;;;;;;;;10.49;86.68;100511.08;1667596;83;21643;-78
2021/04/18 00:50:50;;;;;;;90.42;45.03;;;;;;;10.45;86.71;100513.16;1665815;85;20213;-78
2021/04/18 00:53:17;;;;;;;80.55;42.98;;;;;;;10.49;86.39;100509.75;1671777;84;21477;-78
2021/04/18 00:55:43;;;;;;;82.53;42.98;;;;;;;10.54;86.19;100512.77;1664047;84;21356;-80
2021/04/18 00:58:10;;;;;;;81.72;41.75;;;;;;;10.53;85.86;100507.14;1675987;83;21225;-77
2021/04/18 01:00:37;;;;;;;84.72;43.68;;;;;;;10.44;85.82;100505.37;1670669;83;21179;-81
2021/04/18 01:03:09;;;;;;;86.82;45.45;;;;;;;10.33;86.29;100509.89;1665830;83;21295;-79
2021/04/18 01:05:35;;;;;;;93.58;45.25;;;;;;;10.36;86.32;100503.00;1663222;84;21202;-79
2021/04/18 01:08:03;;;;;;;93.03;45.12;;;;;;;10.26;86.96;100503.48;1661393;84;21146;-77
2021/04/18 01:10:29;;;;;;;88.65;45.10;;;;;;;10.36;86.94;100501.68;1671801;83;21221;-81
2021/04/18 01:12:55;;;;;;;94.52;46.40;;;;;;;10.33;86.68;100501.97;1661558;85;22198;-78
2021/04/18 01:15:23;;;;;;;94.97;47.05;;;;;;;10.41;86.50;100497.28;1665766;85;21058;-77
2021/04/18 01:17:48;;;;;;;;;;;;;;;10.52;85.92;100498.90;1672686;84;21296;-79
2021/04/18 01:20:20;;;;;;;97.88;47.58;;;;;;;10.54;85.73;100496.93;1670153;85;21183;-78
2021/04/18 01:22:46;;;;;;;96.30;46.95;;;;;;;10.57;85.55;100496.14;1626218;85;21232;-79
2021/04/18 01:25:14;;;;;;;106.40;52.00;;;;;;;10.60;85.24;100493.20;1672998;84;21643;-80
2021/04/18 01:27:43;;;;;;;;;;;;;;;10.69;85.12;100494.13;1674862;84;21248;-78
2021/04/18 01:30:10;;;;;;;136.88;67.27;;;;;;;10.68;84.67;100492.46;1672390;84;20226;-77
2021/04/18 01:32:36;;;;;;;161.52;76.87;;;;;;;10.64;84.88;100485.80;1672007;84;21202;-77
2021/04/18 01:35:06;;;;;;;156.85;76.72;;;;;;;10.58;84.98;100481.11;1672516;85;20981;-77
2021/04/18 01:37:32;;;;;;;141.70;68.00;;;;;;;10.69;84.84;100482.72;1671984;85;21219;-78
2021/04/18 01:40:01;;;;;;;119.95;56.65;;;;;;;10.75;84.72;100485.61;1667991;84;20952;-77
2021/04/18 01:42:27;;;;;;;110.08;53.17;;;;;;;10.76;84.71;100478.02;1675810;85;21191;-79
2021/04/18 01:44:55;;;;;;;100.07;48.52;;;;;;;10.75;84.71;100477.69;1675008;84;21153;-78
2021/04/18 01:47:20;;;;;;;;;;;;;;;10.65;84.63;100474.27;1677596;85;22275;-78
2021/04/18 01:49:46;;;;;;;97.33;46.83;;;;;;;10.55;84.95;100481.41;1672785;84;20198;-82
2021/04/18 01:52:15;;;;;;;107.60;50.80;;;;;;;10.57;85.01;100479.47;1671649;85;20968;-78
2021/04/18 01:54:41;;;;;;;112.05;51.30;;;;;;;10.60;84.84;100473.89;1674020;85;21770;-78
2021/04/18 01:57:08;;;;;;;115.70;51.35;;;;;;;10.58;85.00;100483.75;1651534;85;22076;-79
2021/04/18 01:59:35;;;;;;;101.85;49.20;;;;;;;10.64;84.81;100475.23;1674079;84;21773;-79
2021/04/18 02:02:09;;;;;;;110.35;51.05;;;;;;;10.65;84.27;100480.87;1675850;85;21199;-78
2021/04/18 02:04:35;;;;;;;103.12;48.23;;;;;;;10.64;84.31;100472.59;1675488;85;21239;-82
2021/04/18 02:07:03;;;;;;;107.55;49.50;;;;;;;10.67;84.06;100476.27;1670888;84;21204;-78
2021/04/18 02:09:31;;;;;;;104.23;48.73;;;;;;;10.64;84.09;100473.92;1674224;85;21889;-78
2021/04/18 02:12:00;;;;;;;102.25;47.78;;;;;;;10.65;84.24;100473.45;1672896;83;21217;-82
2021/04/18 02:14:31;;;;;;;93.00;44.77;;;;;;;10.69;84.11;100466.87;1674355;84;21214;-78
2021/04/18 02:16:57;;;;;;;85.05;42.48;;;;;;;10.66;83.80;100478.58;1670030;83;21202;-79
2021/04/18 02:19:22;;;;;;;87.20;43.45;;;;;;;10.35;84.49;100481.53;1669623;84;21049;-78
2021/04/18 02:21:48;;;;;;;88.07;43.55;;;;;;;10.23;84.85;100482.66;1668943;84;21093;-79
2021/04/18 02:24:14;;;;;;;88.05;43.00;;;;;;;10.22;85.23;100483.63;1670218;84;28248;-78
2021/04/18 02:26:40;;;;;;;84.15;42.20;;;;;;;10.17;85.37;100488.52;1669435;84;21585;-79
2021/04/18 02:29:07;;;;;;;88.52;42.70;;;;;;;10.14;85.44;100484.36;1669629;84;21192;-81
2021/04/18 02:31:33;;;;;;;84.00;41.15;;;;;;;10.04;85.53;100479.12;1670153;84;21158;-79
2021/04/18 02:34:03;;;;;;;88.17;43.75;;;;;;;10.11;85.57;100471.95;1668311;84;21203;-79
2021/04/18 02:36:30;;;;;;;87.95;43.38;;;;;;;10.16;85.32;100473.19;1649705;85;21251;-78
2021/04/18 02:38:56;;;;;;;93.58;44.83;;;;;;;10.20;85.09;100477.67;1643896;85;21241;-78
2021/04/18 02:41:22;;;;;;;88.05;43.75;;;;;;;10.19;85.07;100471.58;1669546;85;21664;-78
2021/04/18 02:43:48;;;;;;;88.92;43.42;;;;;;;10.17;85.06;100475.33;1669613;85;21207;-78
2021/04/18 02:46:16;;;;;;;99.52;47.10;;;;;;;10.09;85.50;100476.05;1667738;84;21218;-79
2021/04/18 02:48:42;;;;;;;;;;;;;;;10.15;85.47;100470.20;1671862;84;21611;-79
2021/04/18 02:51:07;;;;;;;88.33;44.08;;;;;;;10.23;85.09;100478.70;1669178;84;20234;-78
2021/04/18 02:53:35;;;;;;;96.10;45.70;;;;;;;10.28;84.91;100476.45;1670742;85;20977;-78
2021/04/18 02:56:02;;;;;;;;;;;;;;;10.27;84.84;100478.77;1669068;84;21238;-78
2021/04/18 02:58:28;;;;;;;78.80;40.10;;;;;;;10.22;84.62;100483.63;1667917;84;26941;-79
2021/04/18 03:00:54;;;;;;;82.20;40.83;;;;;;;10.30;84.52;100481.12;1670224;84;27345;-79
2021/04/18 03:03:19;;;;;;;83.65;42.23;;;;;;;10.35;84.43;100490.77;1643892;84;21201;-78
2021/04/18 03:05:45;;;;;;;85.50;40.10;;;;;;;10.32;84.27;100488.89;1668055;84;20968;-78
2021/04/18 03:08:11;;;;;;;84.70;40.88;;;;;;;10.10;84.74;100487.43;1671265;84;20926;-78
2021/04/18 03:10:37;;;;;;;83.00;40.83;;;;;;;9.94;85.07;100486.23;1669137;84;21265;-79
2021/04/18 03:13:03;;;;;;;84.28;42.50;;;;;;;9.95;85.20;100490.55;1668223;85;27316;-78
2021/04/18 03:15:30;;;;;;;85.77;42.53;;;;;;;10.03;85.10;100487.19;1669192;84;25247;-80
2021/04/18 03:17:57;;;;;;;81.37;40.40;;;;;;;10.13;84.73;100487.14;1670747;84;21186;-78
2021/04/18 03:20:23;;;;;;;87.73;41.90;;;;;;;10.17;84.35;100475.33;1667707;85;21661;-78
2021/04/18 03:22:50;;;;;;;84.65;40.50;;;;;;;10.16;84.32;100477.61;1668753;84;21298;-77
2021/04/18 03:25:16;;;;;;;87.78;42.78;;;;;;;10.16;84.24;100477.14;1669483;84;21191;-77
2021/04/18 03:27:42;;;;;;;81.47;40.28;;;;;;;10.12;84.24;100480.22;1670790;85;25744;-76
2021/04/18 03:30:08;;;;;;;85.65;40.55;;;;;;;10.10;84.31;100476.88;1668841;84;21077;-78
2021/04/18 03:32:34;;;;;;;89.00;41.67;;;;;;;10.13;84.28;100472.16;1669527;85;21254;-78
2021/04/18 03:35:04;;;;;;;86.40;41.35;;;;;;;9.92;84.98;100484.23;1667024;85;21602;-79
2021/04/18 03:37:30;;;;;;;87.97;40.95;;;;;;;9.86;85.64;100488.27;1668909;85;21216;-77
2021/04/18 03:39:59;;;;;;;86.32;40.67;;;;;;;9.85;85.83;100487.09;1670096;84;23748;-80
2021/04/18 03:42:24;;;;;;;83.87;40.58;;;;;;;9.88;85.69;100493.39;1669789;85;21202;-78
2021/04/18 03:44:50;;;;;;;88.35;41.48;;;;;;;9.79;85.79;100498.20;1669264;85;20949;-80
2021/04/18 03:47:19;;;;;;;91.10;41.00;;;;;;;9.73;86.01;100502.77;1671168;84;21745;-80
2021/04/18 03:49:45;;;;;;;83.37;40.03;;;;;;;9.75;86.07;100502.13;1650041;84;21226;-81
2021/04/18 03:52:11;;;;;;;80.83;36.58;;;;;;;9.79;86.04;100506.13;1668032;85;21618;-79
2021/04/18 03:54:37;;;;;;;82.22;35.28;;;;;;;9.73;85.66;100505.41;1645765;85;21669;-78
2021/04/18 03:57:05;;;;;;;74.55;36.33;;;;;;;9.56;86.21;100507.77;1670126;84;21058;-79
2021/04/18 03:59:30;;;;;;;76.97;37.03;;;;;;;9.69;85.98;100513.59;1671521;85;21234;-79
2021/04/18 04:02:00;;;;;;;77.03;37.08;;;;;;;9.79;85.65;100511.39;1645593;85;27552;-82
2021/04/18 04:04:26;;;;;;;73.95;36.63;;;;;;;9.82;85.25;100512.43;1667711;84;21709;-78
2021/04/18 04:06:52;;;;;;;68.65;34.20;;;;;;;9.87;85.18;100511.54;1668767;85;20980;-78
2021/04/18 04:09:18;;;;;;;73.55;35.40;;;;;;;9.81;84.65;100510.79;1668945;84;21209;-79
2021/04/18 04:11:44;;;;;;;78.42;36.50;;;;;;;9.87;84.65;100511.54;1670527;83;21249;-78
2021/04/18 04:14:12;;;;;;;79.97;36.48;;;;;;;9.82;84.89;100516.39;1671000;84;21233;-78
2021/04/18 04:16:38;;;;;;;77.62;36.90;;;;;;;9.70;85.44;100521.01;1669134;84;21282;-79
2021/04/18 04:19:04;;;;;;;78.90;36.88;;;;;;;9.68;85.76;100518.52;1665882;85;29299;-78
2021/04/18 04:21:29;;;;;;;86.12;38.78;;;;;;;9.75;85.71;100520.59;1661763;84;27240;-82
2021/04/18 04:23:55;;;;;;;90.15;39.53;;;;;;;9.84;85.56;100525.02;1664167;86;21624;-79
2021/04/18 04:26:21;;;;;;;85.92;39.13;;;;;;;9.91;85.31;100520.81;1661170;84;27088;-78
2021/04/18 04:28:47;;;;;;;82.30;37.78;;;;;;;9.88;85.44;100521.09;1662893;86;25413;-79
2021/04/18 04:31:13;;;;;;;86.12;39.42;;;;;;;10.03;85.22;100526.77;1661464;84;21297;-78
2021/04/18 04:33:38;;;;;;;81.65;38.30;;;;;;;10.06;85.06;100529.94;1653791;86;26990;-79
2021/04/18 04:36:06;;;;;;;78.10;37.58;;;;;;;10.09;84.87;100526.69;1659581;86;21133;-81
2021/04/18 04:38:33;;;;;;;80.17;37.80;;;;;;;9.94;85.20;100526.30;1660971;84;21243;-80
2021/04/18 04:41:02;;;;;;;84.15;38.90;;;;;;;10.00;85.25;100519.13;1665686;84;21099;-81
2021/04/18 04:43:32;;;;;;;85.22;38.20;;;;;;;9.93;85.04;100526.80;1663836;84;21211;-81
2021/04/18 04:45:58;;;;;;;87.20;38.35;;;;;;;9.91;85.35;100520.81;1660905;86;21174;-79
2021/04/18 04:48:26;;;;;;;83.90;37.30;;;;;;;9.89;86.01;100521.45;1664211;86;21662;-79
2021/04/18 04:50:52;;;;;;;81.12;37.05;;;;;;;9.81;86.21;100523.98;1646934;86;21205;-79
2021/04/18 04:53:18;;;;;;;82.08;36.85;;;;;;;9.86;86.03;100525.69;1660526;85;25627;-78
2021/04/18 04:55:46;;;;;;;82.82;37.63;;;;;;;9.89;86.00;100532.83;1659375;85;22031;-79
2021/04/18 04:58:17;;;;;;;78.85;36.83;;;;;;;9.94;86.22;100537.67;1662713;84;21174;-78
2021/04/18 05:00:44;;;;;;;72.30;34.38;;;;;;;9.96;85.86;100534.42;1638095;84;21784;-79
2021/04/18 05:03:14;;;;;;;73.85;34.08;;;;;;;10.02;85.52;100529.90;1660162;84;21211;-80
2021/04/18 05:05:42;;;;;;;70.57;33.33;;;;;;;9.98;85.35;100527.19;1662209;84;21305;-78
2021/04/18 05:08:07;;;;;;;;;;;;;;;9.88;85.31;100521.09;1666349;84;21557;-78
2021/04/18 05:10:36;;;;;;;66.35;32.40;;;;;;;9.87;85.52;100529.51;1658127;84;20179;-81
2021/04/18 05:13:04;;;;;;;70.22;33.30;;;;;;;9.98;85.41;100529.83;1662922;85;21437;-79
2021/04/18 05:15:31;;;;;;;73.78;34.33;;;;;;;9.81;85.54;100530.57;1658428;85;21200;-77
2021/04/18 05:17:57;;;;;;;67.85;32.88;;;;;;;9.64;85.61;100522.39;1639091;86;21185;-78
2021/04/18 05:20:23;;;;;;;69.62;32.60;;;;;;;9.68;85.98;100530.88;1661272;85;21188;-78
2021/04/18 05:22:48;;;;;;;66.85;33.35;;;;;;;9.62;86.10;100529.63;1666575;83;27195;-81
2021/04/18 05:25:16;;;;;;;73.02;35.63;;;;;;;9.73;85.84;100530.45;1662186;83;21638;-82
2021/04/18 05:27:42;;;;;;;;;;;;;;;9.83;85.72;100528.61;1664322;85;21222;-78
2021/04/18 05:30:11;;;;;;;72.45;34.43;;;;;;;9.59;86.12;100539.13;1667348;85;25916;-78
2021/04/18 05:32:40;;;;;;;70.20;33.78;;;;;;;9.49;86.81;100540.47;1665355;83;21196;-78
2021/04/18 05:35:11;;;;;;;74.03;35.13;;;;;;;9.51;86.90;100543.78;1648268;85;21250;-78
2021/04/18 05:37:40;;;;;;;72.70;34.35;;;;;;;9.43;87.08;100548.93;1662689;84;21241;-81
2021/04/18 05:40:07;;;;;;;69.97;35.45;;;;;;;9.32;87.94;100544.63;1666878;84;21209;-80
2021/04/18 05:42:33;;;;;;;;;;;;;;;9.31;87.60;100548.22;1662284;83;21208;-79
2021/04/18 05:44:59;;;;;;;69.32;33.40;;;;;;;9.43;87.66;100545.44;1667537;83;20166;-79
2021/04/18 05:47:25;;;;;;;70.95;34.92;;;;;;;9.53;87.37;100551.55;1662896;84;21040;-79
2021/04/18 05:49:52;;;;;;;66.45;32.08;;;;;;;9.53;87.51;100559.47;1668319;83;21238;-79
2021/04/18 05:52:20;;;;;;;64.05;30.35;;;;;;;9.34;87.96;100561.62;1646497;85;21287;-79
2021/04/18 05:54:46;;;;;;;64.25;32.10;;;;;;;9.08;88.37;100557.36;1666498;84;21265;-81
2021/04/18 05:57:13;;;;;;;62.33;32.53;;;;;;;9.18;88.24;100564.77;1667088;84;21182;-79
2021/04/18 05:59:39;;;;;;;66.75;30.55;;;;;;;9.20;88.58;100564.17;1667376;85;21185;-79
2021/04/18 06:02:05;;;;;;;66.87;33.67;;;;;;;9.09;88.65;100564.27;1649873;85;22687;-79
2021/04/18 06:04:31;;;;;;;63.90;30.08;;;;;;;9.14;88.78;100562.08;1659144;85;27119;-79
2021/04/18 06:07:00;;;;;;;55.90;29.23;;;;;;;9.04;89.60;100565.17;1659869;85;25456;-80
2021/04/18 06:09:28;;;;;;;54.60;26.55;;;;;;;9.03;89.82;100562.21;1659315;84;21188;-80
2021/04/18 06:11:54;;;;;;;63.30;29.37;;;;;;;9.04;89.27;100566.49;1666658;83;21812;-79
2021/04/18 06:14:19;;;;;;;57.40;29.20;;;;;;;9.13;89.04;100564.36;1651008;85;21821;-81
2021/04/18 06:16:46;;;;;;;60.35;29.72;;;;;;;9.23;88.78;100563.05;1662676;84;27119;-80
2021/04/18 06:19:12;;;;;;;54.23;28.47;;;;;;;9.36;88.44;100561.48;1670008;85;21221;-79
2021/04/18 06:21:39;;;;;;;56.13;29.23;;;;;;;9.52;87.82;100564.38;1676004;83;21521;-80
2021/04/18 06:24:07;;;;;;;54.77;27.87;;;;;;;9.61;87.41;100564.04;1675509;85;21188;-79
2021/04/18 06:26:32;;;;;;;55.45;29.42;;;;;;;9.46;87.29;100567.56;1676160;83;21352;-79
2021/04/18 06:28:58;;;;;;;50.90;26.33;;;;;;;9.48;87.45;100567.79;1674135;83;27547;-82
2021/04/18 06:31:25;;;;;;;58.70;28.25;;;;;;;9.49;87.05;100567.30;1679838;83;25347;-77
2021/04/18 06:33:51;;;;;;;51.25;26.68;;;;;;;9.33;87.87;100570.48;1680300;83;21144;-78
2021/04/18 06:36:18;;;;;;;44.73;25.17;;;;;;;9.26;87.78;100570.21;1680627;83;21024;-79
2021/04/18 06:38:44;;;;;;;;;;;;;;;9.29;87.46;100570.41;1679100;85;21221;-79
2021/04/18 06:41:10;;;;;;;39.90;22.67;;;;;;;9.47;87.12;100575.84;1681505;83;27903;-84
2021/04/18 06:43:38;;;;;;;43.63;25.10;;;;;;;9.40;86.60;100574.71;1682974;83;25376;-80
2021/04/18 06:46:07;;;;;;;49.45;26.45;;;;;;;9.56;86.62;100568.41;1640282;85;21497;-80
2021/04/18 06:48:36;;;;;;;50.10;27.42;;;;;;;9.68;86.31;100576.53;1679764;85;21197;-77
2021/04/18 06:51:02;;;;;;;51.65;27.48;;;;;;;9.80;85.87;100575.05;1679735;83;21993;-78
2021/04/18 06:53:28;;;;;;;46.53;25.32;;;;;;;9.94;85.65;100575.10;1675379;83;21689;-79
2021/04/18 06:55:54;;;;;;;50.70;26.23;;;;;;;9.99;85.58;100580.78;1678412;83;25888;-78
2021/04/18 06:58:21;;;;;;;50.70;26.85;;;;;;;10.11;85.56;100578.83;1679176;85;21142;-81
2021/04/18 07:00:47;;;;;;;49.55;27.05;;;;;;;10.09;85.00;100573.69;1657355;84;21241;-80
2021/04/18 07:03:15;;;;;;;48.87;27.48;;;;;;;10.20;85.08;100570.88;1677496;83;21303;-81
2021/04/18 07:05:43;;;;;;;51.48;27.25;;;;;;;10.22;84.78;100572.05;1681630;83;21662;-79
2021/04/18 07:08:34;;;;;;;50.55;25.90;;;;;;;10.32;84.42;100578.14;1684176;83;21255;-78
2021/04/18 07:11:21;;;;;;;48.25;25.72;;;;;;;10.24;84.44;100573.58;1686265;83;21227;-78
2021/04/18 07:13:48;;;;;;;47.80;26.48;;;;;;;10.39;84.28;100572.67;1680477;83;21241;-80
2021/04/18 07:16:30;;;;;;;49.80;26.55;;;;;;;10.33;84.51;100578.53;1682880;83;21217;-80
2021/04/18 07:18:58;;;;;;;48.90;26.90;;;;;;;10.46;84.91;100581.34;1654926;85;21233;-81
2021/04/18 07:21:23;;;;;;;;;;;;;;;10.60;84.27;100566.33;1671310;84;21605;-78
2021/04/18 07:23:49;;;;;;;45.95;25.10;;;;;;;10.63;83.76;100568.67;1670314;84;20216;-78
2021/04/18 07:26:27;;;;;;;50.67;27.85;;;;;;;10.70;83.31;100572.37;1645589;83;20975;-82
2021/04/18 07:29:19;;;;;;;54.50;28.62;;;;;;;10.66;83.51;100570.17;1668497;84;22006;-79
2021/04/18 07:31:48;;;;;;;52.03;27.02;;;;;;;10.54;83.85;100572.19;1661882;84;21281;-79
2021/04/18 07:34:20;;;;;;;51.63;28.50;;;;;;;10.64;83.82;100575.60;1664975;85;21200;-80
2021/04/18 07:36:49;;;;;;;58.05;29.77;;;;;;;10.64;84.11;100576.09;1646049;85;21218;-81
2021/04/18 07:39:16;;;;;;;55.92;29.45;;;;;;;10.54;84.37;100577.47;1665148;85;21221;-80
2021/04/18 07:41:48;;;;;;;52.48;28.00;;;;;;;10.52;84.68;100578.94;1666618;84;21452;-78
2021/04/18 07:44:17;;;;;;;52.93;28.65;;;;;;;10.66;83.86;100577.62;1660939;84;21732;-80
2021/04/18 07:46:55;;;;;;;50.80;27.95;;;;;;;10.68;83.62;100576.98;1664171;85;21198;-80
2021/04/18 07:49:21;;;;;;;51.63;27.65;;;;;;;10.77;83.19;100577.42;1670118;84;21190;-80
2021/04/18 07:51:50;;;;;;;48.48;27.75;;;;;;;10.73;83.22;100578.69;1669189;84;21725;-80
2021/04/18 07:54:20;;;;;;;46.08;26.10;;;;;;;10.70;83.00;100577.66;1668735;84;21616;-79
2021/04/18 07:56:51;;;;;;;48.00;27.32;;;;;;;10.49;83.43;100573.13;1668630;84;21359;-80
2021/04/18 07:59:25;;;;;;;45.08;26.35;;;;;;;10.66;83.40;100568.38;1668223;85;21527;-83
2021/04/18 08:01:47;;;;;;;44.85;25.45;;;;;;;10.80;82.61;100567.53;1667347;85;22287;-81
2021/04/18 08:04:13;;;;;;;42.33;24.98;;;;;;;10.89;82.07;100570.14;1668284;84;21027;-80
2021/04/18 08:06:41;;;;;;;47.58;25.88;;;;;;;11.04;81.61;100566.48;1670275;85;21984;-80
2021/04/18 08:09:21;;;;;;;42.03;24.67;;;;;;;11.10;81.60;100567.22;1668246;84;21281;-81
2021/04/18 08:12:19;;;;;;;48.58;26.35;;;;;;;11.15;80.86;100568.09;1668391;84;21233;-83
2021/04/18 08:14:51;;;;;;;47.13;26.23;;;;;;;11.25;80.60;100566.22;1669662;84;21144;-84
2021/04/18 08:17:18;;;;;;;45.33;25.27;;;;;;;11.18;80.82;100561.69;1644198;85;37889;-80
2021/04/18 08:19:59;;;;;;;48.38;26.33;;;;;;;11.37;80.99;100565.48;1669756;85;21331;-84
2021/04/18 08:22:25;;;;;;;46.75;27.45;;;;;;;11.42;81.00;100570.33;1675125;83;21198;-87
2021/04/18 08:25:09;;;;;;;47.38;26.55;;;;;;;11.27;81.12;100566.07;1674997;85;21226;-87
2021/04/18 08:28:12;;;;;;;43.17;25.40;;;;;;;11.41;81.38;100571.33;1674803;83;21250;-83
2021/04/18 08:31:01;;;;;;;44.98;26.57;;;;;;;11.52;80.90;100563.66;1674681;84;21211;-82
2021/04/18 08:33:43;;;;;;;43.20;25.90;;;;;;;11.60;79.68;100565.04;1668944;84;21177;-86
2021/04/18 08:36:15;;;;;;;44.93;26.10;;;;;;;11.65;79.03;100570.22;1668772;84;21753;-81
2021/04/18 08:38:46;;;;;;;47.73;27.50;;;;;;;11.70;78.75;100568.44;1673554;84;21151;-84
2021/04/18 08:41:15;;;;;;;48.87;28.00;;;;;;;11.71;78.31;100568.77;1672239;84;21683;-82
2021/04/18 08:43:46;;;;;;;45.50;26.35;;;;;;;11.65;78.55;100572.87;1675021;85;21601;-85
2021/04/18 08:46:12;;;;;;;43.52;25.23;;;;;;;11.62;78.77;100573.64;1675031;84;22107;-84
2021/04/18 08:48:39;;;;;;;43.87;26.05;;;;;;;11.60;79.33;100576.94;1676201;83;21230;-88
2021/04/18 08:51:11;;;;;;;42.65;24.75;;;;;;;11.60;79.18;100570.33;1674994;85;21197;-85
2021/04/18 08:53:56;;;;;;;39.88;22.82;;;;;;;11.64;78.91;100568.55;1669481;84;21678;-85
2021/04/18 08:56:23;;;;;;;36.75;22.70;;;;;;;11.66;78.70;100568.40;1674021;84;21230;-84
2021/04/18 08:58:50;;;;;;;38.63;23.07;;;;;;;11.76;78.53;100570.48;1674210;84;21648;-82
2021/04/18 09:01:16;;;;;;;35.05;21.27;;;;;;;11.92;78.41;100573.77;1675111;84;21226;-82
2021/04/18 09:04:03;;;;;;;35.70;21.10;;;;;;;11.89;78.08;100567.92;1667983;84;21075;-79
2021/04/18 09:06:33;;;;;;;39.48;21.50;;;;;;;12.07;78.06;100579.30;1651381;85;21208;-82
2021/04/18 09:09:00;;;;;;;31.42;19.52;;;;;;;11.88;77.69;100580.30;1671549;83;21246;-82
2021/04/18 09:11:28;;;;;;;32.85;20.30;;;;;;;12.11;77.22;100580.66;1653527;85;21218;-84
2021/04/18 09:13:57;;;;;;;33.38;20.17;;;;;;;12.02;76.71;100577.62;1654120;85;21240;-85
2021/04/18 09:16:33;;;;;;;33.88;20.68;;;;;;;12.17;76.43;100579.22;1676091;83;21247;-84
2021/04/18 09:19:30;;;;;;;36.53;22.45;;;;;;;12.15;76.65;100575.41;1673536;84;21819;-85
2021/04/18 09:22:19;;;;;;;38.95;22.55;;;;;;;12.10;77.57;100572.87;1653857;85;21229;-85
2021/04/18 09:25:10;;;;;;;32.83;20.95;;;;;;;12.19;77.15;100576.73;1673629;83;21213;-86
2021/04/18 09:27:43;;;;;;;33.23;20.45;;;;;;;12.41;76.81;100575.86;1671818;84;21296;-82
2021/04/18 09:30:15;;;;;;;32.40;20.82;;;;;;;12.63;76.73;100573.66;1654733;85;21210;-80
2021/04/18 09:32:47;;;;;;;35.70;19.80;;;;;;;12.76;75.95;100571.41;1673730;84;21688;-81
2021/04/18 09:35:17;;;;;;;29.87;18.60;;;;;;;12.85;75.26;100567.79;1635084;85;21246;-82
2021/04/18 09:38:02;;;;;;;30.72;19.60;;;;;;;12.93;74.53;100578.41;1671209;84;21345;-81
2021/04/18 09:40:34;;;;;;;29.25;18.80;;;;;;;13.06;74.77;100574.47;1674380;84;21597;-85
2021/04/18 09:43:02;;;;;;;33.23;20.40;;;;;;;13.08;73.76;100583.08;1675064;83;21228;-84
2021/04/18 09:45:28;;;;;;;;;;;;;;;13.17;73.71;100582.11;1676180;84;21253;-81
2021/04/18 09:48:00;;;;;;;29.30;17.87;;;;;;;13.14;72.94;100570.50;1673431;84;26302;-84
2021/04/18 09:50:33;;;;;;;29.45;19.10;;;;;;;13.14;72.77;100577.13;1673518;83;21201;-80
2021/04/18 09:53:25;;;;;;;31.77;19.65;;;;;;;13.20;73.49;100573.83;1671287;85;21253;-78
2021/04/18 09:56:03;;;;;;;28.45;18.32;;;;;;;13.05;72.51;100570.15;1669722;84;22326;-80
2021/04/18 09:58:39;;;;;;;30.68;19.42;;;;;;;12.80;72.96;100582.00;1673609;84;21131;-79
2021/04/18 10:01:28;;;;;;;27.45;17.85;;;;;;;12.93;73.25;100575.76;1673105;85;21196;-80
2021/04/18 10:03:53;;;;;;;28.90;19.00;;;;;;;13.21;73.06;100572.84;1671137;83;21404;-81
2021/04/18 10:06:19;;;;;;;29.90;18.42;;;;;;;13.41;72.59;100569.94;1629391;85;20968;-81
2021/04/18 10:09:02;;;;;;;30.77;19.20;;;;;;;13.48;71.94;100570.09;1674879;84;21005;-82
2021/04/18 10:11:30;;;;;;;30.17;19.07;;;;;;;13.58;71.49;100566.29;1672204;83;21218;-81
2021/04/18 10:13:59;;;;;;;28.17;18.10;;;;;;;13.75;71.12;100564.95;1652551;83;21221;-82
2021/04/18 10:16:40;;;;;;;28.52;17.90;;;;;;;13.86;70.81;100565.95;1673547;83;21234;-79
2021/04/18 10:22:10;;;;;;;26.57;17.37;;;;;;;13.91;69.21;100571.58;1724754;81;21233;-77
2021/04/18 10:24:48;;;;;;;25.52;16.97;;;;;;;13.95;69.04;100564.95;1720097;81;21367;-79
2021/04/18 10:27:17;;;;;;;27.87;17.23;;;;;;;14.17;68.52;100570.56;1718584;82;21215;-82
2021/04/18 10:29:43;;;;;;;24.02;16.73;;;;;;;14.22;68.72;100564.23;1718102;82;21216;-80
2021/04/18 10:32:13;;;;;;;25.17;16.37;;;;;;;14.19;68.08;100567.22;1725929;81;20964;-79
2021/04/18 10:34:38;;;;;;;24.52;15.75;;;;;;;14.34;67.85;100568.18;1722886;81;21232;-79
2021/04/18 10:37:04;;;;;;;28.42;17.67;;;;;;;14.43;66.90;100569.48;1719513;82;20947;-81
2021/04/18 10:39:32;;;;;;;26.33;18.17;;;;;;;14.52;67.47;100572.44;1701195;81;21270;-81
2021/04/18 10:41:59;;;;;;;24.85;17.23;;;;;;;14.48;68.13;100569.78;1718790;81;22201;-81
2021/04/18 10:44:30;;;;;;;24.95;17.42;;;;;;;14.39;68.21;100565.49;1721364;82;21171;-81
2021/04/18 10:47:02;;;;;;;26.10;16.82;;;;;;;14.41;68.05;100569.65;1719817;82;21218;-80
2021/04/18 10:49:30;;;;;;;24.52;15.30;;;;;;;14.66;67.54;100574.40;1720175;81;21208;-82
2021/04/18 10:51:56;;;;;;;23.67;15.83;;;;;;;14.76;67.31;100562.25;1720627;81;21754;-85
2021/04/18 10:54:23;;;;;;;22.67;15.18;;;;;;;14.90;66.86;100563.34;1716327;81;22117;-81
2021/04/18 10:56:51;;;;;;;24.92;15.50;;;;;;;14.99;66.54;100564.96;1722454;82;21642;-80
2021/04/18 10:59:17;;;;;;;21.07;13.90;;;;;;;14.92;65.88;100570.64;1726364;81;21178;-77
2021/04/18 11:01:46;;;;;;;21.70;14.60;;;;;;;15.06;65.06;100563.23;1716987;82;21204;-79
2021/04/18 11:04:12;;;;;;;19.52;13.70;;;;;;;15.10;65.38;100560.23;1721951;82;21150;-77
2021/04/18 11:06:40;;;;;;;20.95;14.60;;;;;;;15.16;65.21;100556.86;1693176;82;22480;-79
2021/04/18 11:09:08;;;;;;;21.45;15.05;;;;;;;15.17;64.85;100556.69;1723614;81;21130;-78
2021/04/18 11:11:37;;;;;;;20.50;14.83;;;;;;;15.08;64.81;100559.89;1719930;82;21661;-79
2021/04/18 11:14:05;;;;;;;21.93;14.38;;;;;;;15.23;65.30;100556.50;1723678;81;21184;-78
2021/04/18 11:16:32;;;;;;;19.17;13.85;;;;;;;15.36;64.60;100560.70;1696052;82;21287;-77
2021/04/18 11:18:58;;;;;;;20.62;14.18;;;;;;;15.18;64.02;100565.48;1724132;81;21808;-78
2021/04/18 11:21:25;;;;;;;17.73;13.15;;;;;;;15.25;63.97;100559.80;1721572;81;21121;-85
2021/04/18 11:23:53;;;;;;;21.30;13.68;;;;;;;15.49;63.58;100560.62;1720255;82;21190;-77
2021/04/18 11:26:18;;;;;;;20.65;13.15;;;;;;;15.53;62.98;100560.59;1717750;82;21166;-78